createdAt,value
2018-11-23T00:01:06.194Z,18.57
2018-11-23T00:03:52.629Z,18.80
2018-11-23T00:06:39.178Z,19.93
2018-11-23T00:09:25.736Z,18.57
2018-11-23T00:12:12.302Z,17.73
2018-11-23T00:14:58.842Z,19.13
2018-11-23T00:17:45.397Z,18.80
2018-11-23T00:20:31.941Z,17.90
2018-11-23T00:23:18.493Z,19.00
2018-11-23T00:26:04.911Z,17.50
2018-11-23T00:28:51.349Z,18.20
2018-11-23T00:31:37.898Z,18.80
2018-11-23T00:34:24.453Z,17.30
2018-11-23T00:37:10.945Z,18.13
2018-11-23T00:39:57.496Z,17.37
2018-11-23T00:42:44.050Z,17.93
2018-11-23T00:45:30.605Z,18.50
2018-11-23T00:48:17.158Z,19.23
2018-11-23T00:51:03.702Z,17.63
2018-11-23T00:53:50.259Z,19.20
2018-11-23T00:56:36.816Z,17.80
2018-11-23T00:59:23.363Z,18.60
2018-11-23T01:02:09.904Z,19.23
2018-11-23T01:04:56.467Z,18.23
2018-11-23T01:07:43.531Z,18.03
2018-11-23T01:10:30.338Z,19.33
2018-11-23T01:13:16.917Z,18.67
2018-11-23T01:16:03.486Z,19.83
2018-11-23T01:18:50.046Z,19.33
2018-11-23T01:21:36.590Z,17.87
2018-11-23T01:24:23.153Z,17.17
2018-11-23T01:27:09.701Z,19.30
2018-11-23T01:29:56.277Z,18.00
2018-11-23T01:32:42.821Z,17.50
2018-11-23T01:35:29.391Z,18.90
2018-11-23T01:38:15.943Z,17.67
2018-11-23T01:41:02.537Z,17.97
2018-11-23T01:43:49.078Z,18.03
2018-11-23T01:46:35.700Z,19.77
2018-11-23T01:49:22.250Z,20.27
2018-11-23T01:52:08.817Z,20.43
2018-11-23T01:54:55.383Z,19.37
2018-11-23T01:57:42.221Z,19.23
2018-11-23T02:00:28.776Z,19.00
2018-11-23T02:03:15.311Z,18.10
2018-11-23T02:06:01.871Z,20.40
2018-11-23T02:08:48.875Z,19.63
2018-11-23T02:11:35.477Z,19.47
2018-11-23T02:14:21.975Z,20.47
2018-11-23T02:17:08.529Z,20.93
2018-11-23T02:19:56.101Z,20.67
2018-11-23T02:22:42.689Z,24.77
2018-11-23T02:25:29.245Z,27.07
2018-11-23T02:28:15.788Z,27.90
2018-11-23T02:31:21.861Z,26.80
2018-11-23T02:34:08.280Z,27.60
2018-11-23T02:36:35.100Z,26.67
2018-11-23T02:39:21.641Z,29.37
2018-11-23T02:42:08.189Z,28.20
2018-11-23T02:44:54.732Z,27.73
2018-11-23T02:47:42.093Z,27.63
2018-11-23T02:50:28.649Z,27.90
2018-11-23T02:53:15.186Z,27.43
2018-11-23T02:56:01.762Z,28.07
2018-11-23T02:58:48.305Z,28.00
2018-11-23T03:01:34.865Z,26.30
2018-11-23T03:04:21.410Z,26.67
2018-11-23T03:07:07.959Z,28.03
2018-11-23T03:09:54.502Z,29.40
2018-11-23T03:12:41.429Z,27.20
2018-11-23T03:15:27.976Z,25.97
2018-11-23T03:18:14.555Z,26.03
2018-11-23T03:21:01.098Z,25.60
2018-11-23T03:23:47.640Z,25.63
2018-11-23T03:26:34.189Z,26.73
2018-11-23T03:29:20.752Z,27.57
2018-11-23T03:32:07.311Z,28.67
2018-11-23T03:34:53.854Z,27.67
2018-11-23T03:37:40.410Z,28.23
2018-11-23T03:40:26.967Z,26.00
2018-11-23T03:43:13.535Z,27.30
2018-11-23T03:46:00.083Z,28.43
2018-11-23T03:48:46.642Z,24.97
2018-11-23T03:51:33.192Z,27.40
2018-11-23T03:54:19.758Z,26.03
2018-11-23T03:57:06.316Z,26.23
2018-11-23T03:59:53.194Z,27.67
2018-11-23T04:02:39.735Z,26.50
2018-11-23T04:05:26.306Z,27.27
2018-11-23T04:08:12.862Z,27.27
2018-11-23T04:10:59.411Z,25.37
2018-11-23T04:13:45.978Z,26.27
2018-11-23T04:16:32.597Z,25.87
2018-11-23T04:19:19.157Z,25.80
2018-11-23T04:22:05.698Z,26.00
2018-11-23T04:24:52.262Z,26.30
2018-11-23T04:27:38.964Z,25.77
2018-11-23T04:30:25.520Z,26.07
2018-11-23T04:33:12.074Z,27.03
2018-11-23T04:35:58.634Z,26.03
2018-11-23T04:38:45.203Z,28.50
2018-11-23T04:41:31.751Z,27.07
2018-11-23T04:44:18.312Z,26.63
2018-11-23T05:14:00.729Z,25.60
2018-11-23T05:16:38.092Z,25.77
2018-11-23T07:06:35.741Z,24.17
2018-11-23T07:09:04.001Z,23.10
2018-11-23T07:11:30.947Z,24.93
2018-11-23T07:14:03.865Z,23.20
2018-11-23T07:16:24.685Z,25.00
2018-11-23T07:18:51.613Z,25.93
2018-11-23T07:21:21.530Z,23.33
2018-11-23T07:23:45.452Z,23.17
2018-11-23T07:26:12.253Z,20.90
2018-11-23T07:28:39.074Z,22.30
2018-11-23T07:31:06.000Z,23.90
2018-11-23T07:33:32.802Z,24.13
2018-11-23T07:35:59.615Z,22.07
2018-11-23T07:38:26.410Z,25.37
2018-11-23T07:41:11.951Z,22.50
2018-11-23T07:43:38.752Z,23.53
2018-11-23T07:46:05.764Z,23.03
2018-11-23T07:48:32.568Z,23.27
2018-11-23T07:50:59.505Z,22.93
2018-11-23T07:53:26.438Z,21.57
2018-11-23T07:55:53.289Z,19.30
2018-11-23T07:58:20.203Z,21.10
2018-11-23T08:00:47.294Z,20.33
2018-11-23T08:03:14.108Z,20.77
2018-11-23T08:05:40.922Z,21.53
2018-11-23T08:08:07.742Z,19.47
2018-11-23T08:10:34.204Z,20.93
2018-11-23T08:13:01.122Z,19.80
2018-11-23T08:15:28.270Z,18.63
2018-11-23T08:17:55.090Z,19.30
2018-11-23T08:20:23.284Z,19.83
2018-11-23T08:22:50.265Z,18.83
2018-11-23T08:25:18.330Z,20.00
2018-11-23T08:27:46.183Z,21.00
2018-11-23T08:30:27.566Z,20.37
2018-11-23T08:32:54.604Z,19.27
2018-11-23T08:35:21.537Z,21.97
2018-11-23T08:37:48.401Z,21.23
2018-11-23T08:40:19.742Z,22.67
2018-11-23T08:42:47.514Z,20.13
2018-11-23T08:45:15.680Z,21.27
2018-11-23T08:47:42.494Z,20.33
2018-11-23T08:50:10.683Z,21.97
2018-11-23T08:52:37.644Z,21.50
2018-11-23T08:55:04.752Z,21.40
2018-11-23T08:57:31.568Z,20.50
2018-11-23T08:59:58.372Z,21.43
2018-11-23T09:02:25.200Z,21.03
2018-11-23T09:04:52.001Z,22.00
2018-11-23T09:07:18.801Z,22.57
2018-11-23T09:09:45.610Z,23.13
2018-11-23T09:12:12.431Z,21.87
2018-11-23T09:14:39.668Z,22.20
2018-11-23T09:17:06.580Z,21.83
2018-11-23T09:19:33.546Z,22.73
2018-11-23T09:22:00.468Z,23.03
2018-11-23T09:24:27.395Z,22.57
2018-11-23T09:26:54.202Z,24.83
2018-11-23T09:29:21.608Z,24.27
2018-11-23T09:31:48.794Z,24.50
2018-11-23T09:34:15.602Z,22.83
2018-11-23T09:36:42.393Z,23.00
2018-11-23T09:39:09.534Z,24.57
2018-11-23T09:41:36.457Z,23.50
2018-11-23T09:44:03.647Z,24.57
2018-11-23T09:46:30.449Z,23.03
2018-11-23T09:48:57.388Z,24.60
2018-11-23T09:51:24.310Z,23.87
2018-11-23T09:53:51.126Z,23.77
2018-11-23T09:56:17.917Z,24.30
2018-11-23T09:58:44.723Z,25.07
2018-11-23T10:01:11.537Z,25.57
2018-11-23T10:03:38.557Z,23.77
2018-11-23T10:06:05.364Z,22.37
2018-11-23T10:08:37.144Z,22.20
2018-11-23T10:10:59.007Z,23.17
2018-11-23T10:13:25.941Z,24.90
2018-11-23T10:15:52.868Z,24.73
2018-11-23T10:18:20.135Z,25.83
2018-11-23T10:20:47.052Z,25.23
2018-11-23T10:23:13.969Z,24.67
2018-11-23T10:25:40.901Z,25.17
2018-11-23T10:28:07.820Z,25.20
2018-11-23T10:30:35.630Z,25.30
2018-11-23T10:35:56.577Z,29.93
2018-11-23T10:38:23.723Z,28.53
2018-11-23T10:40:50.851Z,25.67
2018-11-23T10:43:18.004Z,26.50
2018-11-23T10:45:45.153Z,27.90
2018-11-23T10:48:12.336Z,25.73
2018-11-23T10:50:40.882Z,25.80
2018-11-23T10:53:08.061Z,25.37
2018-11-23T10:55:36.098Z,25.30
2018-11-23T10:58:04.195Z,23.10
2018-11-23T11:00:37.142Z,23.40
2018-11-23T11:03:10.302Z,24.23
2018-11-23T11:05:43.050Z,22.03
2018-11-23T11:08:10.253Z,23.53
2018-11-23T11:10:37.409Z,22.07
2018-11-23T11:13:04.609Z,24.57
2018-11-23T11:15:31.773Z,23.87
2018-11-23T11:17:58.959Z,22.57
2018-11-23T11:20:26.105Z,22.20
2018-11-23T11:22:53.274Z,23.53
2018-11-23T11:25:20.438Z,23.50
2018-11-23T11:27:47.559Z,23.50
2018-11-23T11:30:15.765Z,21.57
2018-11-23T11:32:43.302Z,22.27
2018-11-23T11:35:11.138Z,21.37
2018-11-23T11:37:38.445Z,20.97
2018-11-23T11:40:06.547Z,22.53
2018-11-23T11:42:33.785Z,21.63
2018-11-23T11:45:00.926Z,22.33
2018-11-23T11:47:28.087Z,21.20
2018-11-23T11:49:59.163Z,21.50
2018-11-23T11:52:22.396Z,20.10
2018-11-23T11:54:49.505Z,20.77
2018-11-23T11:57:16.689Z,22.60
2018-11-23T11:59:43.842Z,21.37
2018-11-23T12:02:11.005Z,19.70
2018-11-23T12:04:38.138Z,20.13
2018-11-23T12:07:05.449Z,21.13
2018-11-23T12:09:32.566Z,20.13
2018-11-23T12:11:59.722Z,20.90
2018-11-23T12:14:26.869Z,20.27
2018-11-23T12:16:54.033Z,21.37
2018-11-23T12:19:21.176Z,21.27
2018-11-23T12:21:48.344Z,19.80
2018-11-23T12:24:15.494Z,22.30
2018-11-23T12:26:42.609Z,21.53
2018-11-23T12:29:09.765Z,21.30
2018-11-23T12:31:36.921Z,20.17
2018-11-23T12:34:04.113Z,19.40
2018-11-23T12:36:31.264Z,17.83
2018-11-23T12:38:58.407Z,19.57
2018-11-23T12:41:25.569Z,21.83
2018-11-23T12:43:52.716Z,19.23
2018-11-23T12:46:19.888Z,19.87
2018-11-23T12:48:47.021Z,20.20
2018-11-23T12:51:14.162Z,19.40
2018-11-23T12:53:41.273Z,20.77
2018-11-23T12:56:08.405Z,22.37
2018-11-23T12:58:35.564Z,22.50
2018-11-23T13:01:02.700Z,20.87
2018-11-23T13:03:29.820Z,19.43
2018-11-23T13:05:57.005Z,19.67
2018-11-23T13:08:24.171Z,19.63
2018-11-23T13:10:51.465Z,17.90
2018-11-23T13:13:18.614Z,18.17
2018-11-23T13:15:45.757Z,17.50
2018-11-23T13:18:12.907Z,15.70
2018-11-23T13:20:40.058Z,17.67
2018-11-23T13:23:07.484Z,17.03
2018-11-23T13:25:34.625Z,16.60
2018-11-23T13:28:01.969Z,15.80
2018-11-23T13:30:30.580Z,17.40
2018-11-23T13:32:57.814Z,17.60
2018-11-23T13:35:25.025Z,18.07
2018-11-23T13:37:52.302Z,19.37
2018-11-23T13:40:20.812Z,17.23
2018-11-23T13:42:48.469Z,17.67
2018-11-23T13:45:17.153Z,16.37
2018-11-23T13:47:44.306Z,16.47
2018-11-23T13:50:12.885Z,18.40
2018-11-23T13:52:40.673Z,17.37
2018-11-23T13:55:07.988Z,20.40
2018-11-23T13:57:35.246Z,20.17
2018-11-23T14:00:02.716Z,20.17
2018-11-23T14:02:30.142Z,19.23
2018-11-23T14:04:57.290Z,17.13
2018-11-23T14:07:24.757Z,17.07
2018-11-23T14:09:52.062Z,18.17
2018-11-23T14:12:19.277Z,17.40
2018-11-23T14:14:46.510Z,18.33
2018-11-23T14:17:13.740Z,17.67
2018-11-23T14:19:41.004Z,17.90
2018-11-23T14:22:08.198Z,18.70
2018-11-23T14:24:35.459Z,18.47
2018-11-23T14:27:02.669Z,19.10
2018-11-23T14:29:29.773Z,19.13
2018-11-23T14:31:57.123Z,18.00
2018-11-23T14:34:24.542Z,19.53
2018-11-23T14:36:51.753Z,19.40
2018-11-23T14:39:19.038Z,19.10
2018-11-23T14:41:46.270Z,19.40
2018-11-23T14:44:13.514Z,18.80
2018-11-23T14:46:40.657Z,20.40
2018-11-23T14:49:07.878Z,19.80
2018-11-23T14:51:35.106Z,18.87
2018-11-23T14:54:02.334Z,18.47
2018-11-23T14:56:29.562Z,19.13
2018-11-23T14:58:56.785Z,20.63
2018-11-23T15:01:24.954Z,19.43
2018-11-23T15:03:52.193Z,18.90
2018-11-23T15:06:19.421Z,20.83
2018-11-23T15:08:46.629Z,21.00
2018-11-23T15:11:13.845Z,21.43
2018-11-23T15:13:40.985Z,21.00
2018-11-23T15:16:08.231Z,20.77
2018-11-23T15:18:35.447Z,19.87
2018-11-23T15:21:02.695Z,19.37
2018-11-23T15:23:29.893Z,19.43
2018-11-23T15:25:57.126Z,22.07
2018-11-23T15:28:24.275Z,21.90
2018-11-23T15:30:51.506Z,24.30
2018-11-23T15:33:18.718Z,25.47
2018-11-23T15:35:45.958Z,22.37
2018-11-23T15:38:14.134Z,22.63
2018-11-23T15:40:41.410Z,19.80
2018-11-23T15:43:10.143Z,21.13
2018-11-23T15:45:37.489Z,20.77
2018-11-23T15:48:05.121Z,20.40
2018-11-23T15:50:33.651Z,21.80
2018-11-23T15:53:00.886Z,21.37
2018-11-23T15:55:29.035Z,20.47
2018-11-23T15:57:57.803Z,21.73
2018-11-23T16:00:26.453Z,19.30
2018-11-23T16:02:53.677Z,18.57
2018-11-23T16:05:21.134Z,19.07
2018-11-23T16:07:48.440Z,18.43
2018-11-23T16:10:17.358Z,19.03
2018-11-23T16:12:46.268Z,20.07
2018-11-23T16:15:13.586Z,18.77
2018-11-23T16:17:40.829Z,19.30
2018-11-23T16:20:09.078Z,21.03
2018-11-23T16:22:36.247Z,21.40
2018-11-23T16:25:03.950Z,19.40
2018-11-23T16:27:31.112Z,20.40
2018-11-23T16:29:58.376Z,20.70
2018-11-23T16:32:25.566Z,20.83
2018-11-23T16:34:52.765Z,21.57
2018-11-23T16:37:19.980Z,22.10
2018-11-23T16:39:47.234Z,22.50
2018-11-23T16:42:14.461Z,19.40
2018-11-23T16:44:41.690Z,21.17
2018-11-23T16:47:08.996Z,21.33
2018-11-23T16:49:36.229Z,18.73
2018-11-23T16:52:03.518Z,19.80
2018-11-23T16:54:30.790Z,21.33
2018-11-23T16:56:58.049Z,23.03
2018-11-23T16:59:25.266Z,20.93
2018-11-23T17:01:52.449Z,22.77
2018-11-23T17:04:19.645Z,20.90
2018-11-23T17:06:46.873Z,20.20
2018-11-23T17:09:14.128Z,21.87
2018-11-23T17:11:41.345Z,20.70
2018-11-23T17:14:08.577Z,21.50
2018-11-23T17:16:35.777Z,21.03
2018-11-23T17:19:02.993Z,20.00
2018-11-23T17:21:30.210Z,19.20
2018-11-23T17:23:57.445Z,24.77
2018-11-23T17:26:24.685Z,23.03
2018-11-23T17:28:51.905Z,21.23
2018-11-23T17:31:19.090Z,20.27
2018-11-23T17:33:46.354Z,21.07
2018-11-23T17:36:13.542Z,22.17
2018-11-23T17:38:47.385Z,21.63
2018-11-23T17:41:07.958Z,21.37
2018-11-23T17:43:35.214Z,21.33
2018-11-23T17:46:02.454Z,21.50
2018-11-23T17:48:29.665Z,22.60
2018-11-23T17:50:57.932Z,21.17
2018-11-23T17:53:25.169Z,23.07
2018-11-23T17:55:52.410Z,23.10
2018-11-23T17:58:19.597Z,21.07
2018-11-23T18:00:46.799Z,22.70
2018-11-23T18:03:14.018Z,19.97
2018-11-23T18:05:41.254Z,21.67
2018-11-23T18:08:08.469Z,26.43
2018-11-23T18:10:35.728Z,23.17
2018-11-23T18:13:03.052Z,23.97
2018-11-23T18:15:31.458Z,40.20
2018-11-23T18:17:59.593Z,30.57
2018-11-23T18:20:27.613Z,26.97
2018-11-23T18:22:55.515Z,20.60
2018-11-23T18:25:24.970Z,20.40
2018-11-23T18:27:57.785Z,21.17
2018-11-23T18:30:24.927Z,22.27
2018-11-23T18:32:52.149Z,21.63
2018-11-23T18:35:19.414Z,20.53
2018-11-23T18:37:46.565Z,21.83
2018-11-23T18:40:13.737Z,22.60
2018-11-23T18:42:55.013Z,23.17
2018-11-23T18:50:55.500Z,22.53
2018-11-23T18:58:55.567Z,26.83
2018-11-23T19:01:32.504Z,26.53
2018-11-23T19:06:56.514Z,26.67
2018-11-23T19:12:10.372Z,21.93
2018-11-23T19:14:37.786Z,21.87
2018-11-23T19:17:04.973Z,22.83
2018-11-23T19:19:32.166Z,21.90
2018-11-23T19:21:59.415Z,23.30
2018-11-23T19:24:26.643Z,22.10
2018-11-23T19:26:53.881Z,21.10
2018-11-23T19:29:21.108Z,21.23
2018-11-23T19:31:48.337Z,22.97
2018-11-23T19:34:15.597Z,22.93
2018-11-23T19:36:42.839Z,22.80
2018-11-23T19:39:09.984Z,23.23
2018-11-23T19:41:37.344Z,21.57
2018-11-23T19:44:04.654Z,23.47
2018-11-23T19:46:31.943Z,27.13
2018-11-23T19:48:59.166Z,24.17
2018-11-23T19:51:26.409Z,25.23
2018-11-23T19:53:53.636Z,27.00
2018-11-23T19:56:20.858Z,30.93
2018-11-23T19:58:48.155Z,36.13
2018-11-23T20:01:15.373Z,26.53
2018-11-23T20:03:42.649Z,26.10
2018-11-23T20:06:09.875Z,27.20
2018-11-23T20:08:37.130Z,26.03
2018-11-23T20:11:04.377Z,27.33
2018-11-23T20:13:31.620Z,26.53
2018-11-23T20:15:58.877Z,26.20
2018-11-23T20:18:26.117Z,27.17
2018-11-23T20:20:53.401Z,25.23
2018-11-23T20:23:20.704Z,27.10
2018-11-23T20:25:47.945Z,24.87
2018-11-23T20:28:15.216Z,25.27
2018-11-23T20:30:42.718Z,25.87
2018-11-23T20:33:09.744Z,23.97
2018-11-23T20:35:37.050Z,24.07
2018-11-23T20:38:04.522Z,22.63
2018-11-23T20:40:31.806Z,22.20
2018-11-23T20:42:59.092Z,21.77
2018-11-23T20:45:26.373Z,28.67
2018-11-23T20:47:53.656Z,29.50
2018-11-23T20:50:20.917Z,23.73
2018-11-23T20:52:48.147Z,25.87
2018-11-23T20:55:15.833Z,29.00
2018-11-23T20:57:43.057Z,27.07
2018-11-23T21:00:11.665Z,28.33
2018-11-23T21:02:38.838Z,27.00
2018-11-23T21:05:06.805Z,26.57
2018-11-23T21:07:34.093Z,25.13
2018-11-23T21:10:01.454Z,27.27
2018-11-23T21:12:28.681Z,26.13
2018-11-23T21:14:55.922Z,27.97
2018-11-23T21:17:23.184Z,27.03
2018-11-23T21:19:50.439Z,35.75
2018-11-23T21:22:17.701Z,30.63
2018-11-23T21:24:44.857Z,29.23
2018-11-23T21:27:12.177Z,30.20
2018-11-23T21:29:39.698Z,29.10
2018-11-23T21:32:06.890Z,27.53
2018-11-23T21:34:34.062Z,26.23
2018-11-23T21:37:01.506Z,24.97
2018-11-23T21:39:28.794Z,24.50
2018-11-23T21:41:56.026Z,23.90
2018-11-23T21:44:23.509Z,23.37
2018-11-23T21:46:50.866Z,23.40
2018-11-23T21:49:18.169Z,25.63
2018-11-23T21:51:45.439Z,25.07
2018-11-23T21:54:12.650Z,25.27
2018-11-23T21:56:39.903Z,25.87
2018-11-23T21:59:07.138Z,24.17
2018-11-23T22:01:34.389Z,27.80
2018-11-23T22:04:06.396Z,24.73
2018-11-23T22:06:28.789Z,25.43
2018-11-23T22:08:56.097Z,24.13
2018-11-23T22:11:23.345Z,26.30
2018-11-23T22:13:50.594Z,26.33
2018-11-23T22:16:17.821Z,24.13
2018-11-23T22:18:45.059Z,28.07
2018-11-23T22:21:12.220Z,25.67
2018-11-23T22:23:39.473Z,29.47
2018-11-23T22:26:06.692Z,26.83
2018-11-23T22:28:34.002Z,26.07
2018-11-23T22:31:01.250Z,27.43
2018-11-23T22:33:28.485Z,27.77
2018-11-23T22:35:55.697Z,26.37
2018-11-23T22:38:22.849Z,25.80
2018-11-23T22:40:53.471Z,27.03
2018-11-23T22:48:53.825Z,25.20
2018-11-23T22:54:11.514Z,25.87
2018-11-23T22:56:38.726Z,25.13
2018-11-23T22:59:07.571Z,24.77
2018-11-23T23:07:08.321Z,27.47
2018-11-23T23:15:09.095Z,25.23
2018-11-23T23:23:08.900Z,26.10
2018-11-23T23:31:12.900Z,27.40
2018-11-23T23:33:40.041Z,27.63
2018-11-23T23:36:23.449Z,27.57
2018-11-23T23:38:54.058Z,26.47
2018-11-23T23:44:22.478Z,26.33
2018-11-23T23:47:02.762Z,25.80
2018-11-23T23:55:04.521Z,25.53
